createdAt,value
2022-07-27T00:01:09.901Z,97395.41
2022-07-27T00:03:38.962Z,97411.66
2022-07-27T00:06:07.748Z,97387.81
2022-07-27T00:08:36.338Z,97252.19
2022-07-27T00:11:04.908Z,97410.88
2022-07-27T00:13:33.611Z,97404.38
2022-07-27T00:16:02.131Z,97407.59
2022-07-27T00:18:32.171Z,97406.63
2022-07-27T00:21:00.710Z,97411.63
2022-07-27T00:23:29.052Z,97415.09
2022-07-27T00:25:57.279Z,97253.06
2022-07-27T00:28:25.489Z,97405.22
2022-07-27T00:30:53.753Z,97360.91
2022-07-27T00:33:21.989Z,97401.34
2022-07-27T00:35:51.653Z,97404.44
2022-07-27T00:38:20.145Z,97406.53
2022-07-27T00:40:48.409Z,97272.56
2022-07-27T00:43:16.583Z,97369.38
2022-07-27T00:45:44.812Z,97397.47
2022-07-27T00:48:13.007Z,97348.41
2022-07-27T00:50:44.053Z,97398.19
2022-07-27T00:53:15.774Z,97367.38
2022-07-27T00:55:44.263Z,97408.28
2022-07-27T00:58:12.565Z,97344.91
2022-07-27T01:00:41.122Z,97342.06
2022-07-27T01:03:10.009Z,97391.53
2022-07-27T01:05:42.346Z,97388.56
2022-07-27T01:08:14.474Z,97388.56
2022-07-27T01:10:45.015Z,97390.38
2022-07-27T01:13:13.927Z,97379.59
2022-07-27T01:15:44.119Z,97345.78
2022-07-27T01:18:14.156Z,97379.44
2022-07-27T01:20:43.395Z,97383.38
2022-07-27T01:23:13.432Z,97274.16
2022-07-27T01:25:44.579Z,97322.44
2022-07-27T01:28:12.820Z,97383.13
2022-07-27T01:30:41.109Z,97357.69
2022-07-27T01:33:10.769Z,97356.09
2022-07-27T01:35:40.344Z,97294.22
2022-07-27T01:38:11.013Z,97365.28
2022-07-27T01:40:41.020Z,97230.75
2022-07-27T01:43:09.338Z,97226.06
2022-07-27T01:45:38.014Z,97380.66
2022-07-27T01:48:06.642Z,97379.06
2022-07-27T01:50:34.873Z,97369.09
2022-07-27T01:53:03.173Z,97294.94
2022-07-27T01:55:36.961Z,97366.53
2022-07-27T01:58:09.609Z,97370.44
2022-07-27T02:00:39.085Z,97362.22
2022-07-27T02:03:09.033Z,97306.31
2022-07-27T02:05:38.369Z,97365.91
2022-07-27T02:08:08.135Z,97369.94
2022-07-27T02:10:37.166Z,97361.06
2022-07-27T02:13:22.373Z,97244.34
2022-07-27T02:15:54.906Z,97356.63
2022-07-27T02:18:33.574Z,97357.28
2022-07-27T02:21:04.759Z,97309.13
2022-07-27T02:23:33.086Z,97358.09
2022-07-27T02:26:01.490Z,97287.19
2022-07-27T02:28:29.801Z,97288.75
2022-07-27T02:30:59.718Z,97336.91
2022-07-27T02:33:28.293Z,97365.56
2022-07-27T02:35:56.659Z,97353.94
2022-07-27T02:38:26.130Z,97335.00
2022-07-27T02:40:54.451Z,97362.84
2022-07-27T02:43:23.083Z,97250.03
2022-07-27T02:45:54.296Z,97311.78
2022-07-27T02:48:23.957Z,97354.13
2022-07-27T02:50:52.387Z,97371.94
2022-07-27T02:53:21.018Z,97343.00
2022-07-27T02:55:49.446Z,97365.03
2022-07-27T02:58:17.706Z,97350.13
2022-07-27T03:00:45.972Z,97350.22
2022-07-27T03:03:14.244Z,97317.91
2022-07-27T03:05:44.083Z,97250.31
2022-07-27T03:08:12.448Z,97350.75
2022-07-27T03:10:40.739Z,97350.19
2022-07-27T03:13:17.093Z,97275.69
2022-07-27T03:15:45.437Z,97352.25
2022-07-27T03:18:13.750Z,97349.00
2022-07-27T03:20:43.535Z,97346.22
2022-07-27T03:23:13.798Z,97359.78
2022-07-27T03:25:42.154Z,97346.50
2022-07-27T03:28:10.359Z,97284.13
2022-07-27T03:30:38.697Z,97359.09
2022-07-27T03:33:06.998Z,97306.13
2022-07-27T03:35:35.721Z,97235.13
2022-07-27T03:38:05.405Z,97356.72
2022-07-27T03:40:33.978Z,97341.72
2022-07-27T03:43:02.616Z,97357.25
2022-07-27T03:45:30.930Z,97362.47
2022-07-27T03:47:59.470Z,97366.44
2022-07-27T03:50:28.307Z,97361.63
2022-07-27T03:52:56.676Z,97342.38
2022-07-27T03:55:26.454Z,97251.72
2022-07-27T03:57:54.957Z,97364.84
2022-07-27T04:00:23.697Z,97363.00
2022-07-27T04:02:52.109Z,97359.69
2022-07-27T04:05:20.982Z,97355.94
2022-07-27T04:07:49.235Z,97360.97
2022-07-27T04:10:23.348Z,97361.03
2022-07-27T04:12:55.691Z,97341.25
2022-07-27T04:15:24.773Z,97323.63
2022-07-27T04:17:57.022Z,97368.78
2022-07-27T04:20:27.006Z,97363.88
2022-07-27T04:22:56.443Z,97310.91
2022-07-27T04:25:24.681Z,97324.44
2022-07-27T04:27:55.439Z,97304.63
2022-07-27T04:30:24.479Z,97363.53
2022-07-27T04:32:53.159Z,97337.56
2022-07-27T04:35:25.907Z,97368.47
2022-07-27T04:37:59.112Z,97298.97
2022-07-27T04:40:32.539Z,97371.75
2022-07-27T04:43:03.517Z,97367.78
2022-07-27T04:45:32.542Z,97313.53
2022-07-27T04:48:00.822Z,97366.03
2022-07-27T04:50:29.134Z,97338.31
2022-07-27T04:52:57.341Z,97345.19
2022-07-27T04:55:25.891Z,97372.03
2022-07-27T04:57:54.508Z,97374.13
2022-07-27T05:00:24.203Z,97355.72
2022-07-27T05:02:52.480Z,97377.38
2022-07-27T05:05:20.917Z,97355.53
2022-07-27T05:07:49.176Z,97336.25
2022-07-27T05:10:20.547Z,97366.72
2022-07-27T05:12:49.463Z,97376.47
2022-07-27T05:15:18.222Z,97343.19
2022-07-27T05:17:48.261Z,97389.44
2022-07-27T05:20:16.787Z,97380.81
2022-07-27T05:22:45.561Z,97368.75
2022-07-27T05:25:14.913Z,97389.03
2022-07-27T05:27:53.687Z,97388.06
2022-07-27T05:30:25.687Z,97390.00
2022-07-27T05:32:56.132Z,97355.59
2022-07-27T05:35:24.376Z,97376.28
2022-07-27T05:37:52.741Z,97406.06
2022-07-27T05:40:21.072Z,97409.06
2022-07-27T05:42:49.501Z,97423.78
2022-07-27T05:45:17.872Z,97356.69
2022-07-27T05:47:47.293Z,97213.75
2022-07-27T05:50:17.563Z,97411.19
2022-07-27T05:52:45.886Z,97228.44
2022-07-27T05:55:15.141Z,97378.59
2022-07-27T05:57:43.949Z,97419.69
2022-07-27T06:00:13.490Z,97415.72
2022-07-27T06:02:42.231Z,97331.84
2022-07-27T06:05:15.630Z,97418.56
2022-07-27T06:08:01.023Z,97424.16
2022-07-27T06:10:30.701Z,97306.13
2022-07-27T06:12:59.452Z,97373.47
2022-07-27T06:15:27.931Z,97342.75
2022-07-27T06:17:56.746Z,97414.28
2022-07-27T06:20:27.364Z,97417.66
2022-07-27T06:23:00.503Z,97426.53
2022-07-27T06:25:34.515Z,97418.19
2022-07-27T06:28:04.472Z,97327.69
2022-07-27T06:30:32.669Z,97424.63
2022-07-27T06:33:01.010Z,97424.28
2022-07-27T06:35:29.730Z,97427.56
2022-07-27T06:38:00.712Z,97435.94
2022-07-27T06:40:30.078Z,97425.84
2022-07-27T06:42:59.570Z,97375.09
2022-07-27T06:45:28.088Z,97319.75
2022-07-27T06:47:56.524Z,97433.38
2022-07-27T06:50:25.051Z,97436.19
2022-07-27T06:52:53.385Z,97424.63
2022-07-27T06:55:23.234Z,97419.19
2022-07-27T06:57:51.454Z,97378.72
2022-07-27T07:00:19.718Z,97418.19
2022-07-27T07:02:56.063Z,97421.09
2022-07-27T07:05:25.092Z,97396.22
2022-07-27T07:07:54.031Z,97412.63
2022-07-27T07:10:24.657Z,97398.66
2022-07-27T07:12:56.285Z,97415.97
2022-07-27T07:15:26.669Z,97418.47
2022-07-27T07:17:55.397Z,97408.19
2022-07-27T07:20:24.432Z,97260.94
2022-07-27T07:22:52.996Z,97404.78
2022-07-27T07:25:21.544Z,97357.06
2022-07-27T07:27:52.097Z,97403.81
2022-07-27T07:30:20.820Z,97406.69
2022-07-27T07:32:49.357Z,97324.66
2022-07-27T07:35:18.085Z,97395.22
2022-07-27T07:37:50.351Z,97394.06
2022-07-27T07:43:09.610Z,97394.50
2022-07-27T07:45:50.105Z,97399.31
2022-07-27T07:48:21.438Z,97398.66
2022-07-27T07:50:52.260Z,97392.88
2022-07-27T07:53:23.279Z,97375.97
2022-07-27T07:55:52.426Z,97388.72
2022-07-27T07:58:22.244Z,97409.06
2022-07-27T08:00:50.552Z,97361.75
2022-07-27T08:03:19.287Z,97398.16
2022-07-27T08:05:47.696Z,97396.75
2022-07-27T08:08:17.215Z,97401.97
2022-07-27T08:10:45.763Z,97385.00
2022-07-27T08:13:21.570Z,97402.06
2022-07-27T08:15:52.658Z,97359.53
2022-07-27T08:18:21.270Z,97419.31
2022-07-27T08:20:49.647Z,97414.34
2022-07-27T08:23:18.008Z,97415.63
2022-07-27T08:25:46.261Z,97331.94
2022-07-27T08:28:14.508Z,97284.13
2022-07-27T08:30:42.968Z,97426.09
2022-07-27T08:33:13.585Z,97391.34
2022-07-27T08:35:42.047Z,97383.09
2022-07-27T08:38:11.001Z,97391.13
2022-07-27T08:40:44.370Z,97275.38
2022-07-27T08:43:21.919Z,97420.34
2022-07-27T08:45:57.696Z,97440.56
2022-07-27T08:48:29.592Z,97441.06
2022-07-27T08:50:57.946Z,97422.69
2022-07-27T08:53:52.761Z,97410.06
2022-07-27T08:56:15.976Z,97429.66
2022-07-27T08:58:46.297Z,97436.00
2022-07-27T09:01:14.679Z,97437.19
2022-07-27T09:03:44.824Z,97422.19
2022-07-27T09:06:13.184Z,97333.38
2022-07-27T09:08:42.129Z,97414.78
2022-07-27T09:11:16.239Z,97400.00
2022-07-27T09:13:45.021Z,97382.72
2022-07-27T09:16:18.519Z,97419.75
2022-07-27T09:18:49.503Z,97423.44
2022-07-27T09:21:20.285Z,97421.53
2022-07-27T09:23:50.424Z,97286.28
2022-07-27T09:26:36.085Z,97419.75
2022-07-27T09:29:11.947Z,97419.34
2022-07-27T09:31:43.639Z,97424.38
2022-07-27T09:34:14.898Z,97349.72
2022-07-27T09:36:54.567Z,97423.69
2022-07-27T09:39:24.403Z,97411.97
2022-07-27T09:41:55.236Z,97352.41
2022-07-27T09:44:44.074Z,97342.63
2022-07-27T09:47:27.292Z,97368.50
2022-07-27T09:49:58.920Z,97344.75
2022-07-27T09:52:30.169Z,97306.38
2022-07-27T09:55:05.350Z,97402.53
2022-07-27T09:57:52.632Z,97361.41
2022-07-27T10:00:23.942Z,97394.75
2022-07-27T10:02:54.229Z,97391.63
2022-07-27T10:05:24.462Z,97383.06
2022-07-27T10:07:54.688Z,97326.69
2022-07-27T10:10:24.417Z,97371.28
2022-07-27T10:12:55.032Z,97365.78
2022-07-27T10:15:24.245Z,97256.81
2022-07-27T10:18:01.588Z,97370.31
2022-07-27T10:20:34.760Z,97381.47
2022-07-27T10:23:02.960Z,97371.59
2022-07-27T10:25:37.473Z,97238.31
2022-07-27T10:28:16.100Z,97263.75
2022-07-27T10:30:47.250Z,97368.28
2022-07-27T10:33:43.534Z,97373.75
2022-07-27T10:36:16.993Z,97378.78
2022-07-27T10:38:51.390Z,97380.31
2022-07-27T10:41:23.834Z,97268.66
2022-07-27T10:43:52.476Z,97378.63
2022-07-27T10:46:21.994Z,97373.53
2022-07-27T10:48:50.848Z,97368.78
2022-07-27T10:51:35.698Z,97366.34
2022-07-27T10:54:22.658Z,97248.94
2022-07-27T10:56:52.906Z,97373.09
2022-07-27T11:00:08.729Z,97334.94
2022-07-27T11:02:42.032Z,97348.81
2022-07-27T11:05:37.853Z,97369.84
2022-07-27T11:10:50.525Z,97376.91
2022-07-27T11:13:20.309Z,97280.47
2022-07-27T11:15:56.007Z,97372.41
2022-07-27T11:18:28.619Z,97363.59
2022-07-27T11:21:17.996Z,97368.97
2022-07-27T11:23:54.920Z,97288.09
2022-07-27T11:26:24.158Z,97369.69
2022-07-27T11:28:53.299Z,97370.38
2022-07-27T11:31:45.155Z,97383.84
2022-07-27T11:34:11.818Z,97183.44
2022-07-27T11:36:43.317Z,97284.72
2022-07-27T11:39:15.295Z,97372.00
2022-07-27T11:42:08.440Z,97346.59
2022-07-27T11:44:33.089Z,97355.19
2022-07-27T11:47:03.226Z,97344.59
2022-07-27T11:49:32.780Z,97369.47
2022-07-27T11:52:02.438Z,97360.72
2022-07-27T11:54:33.992Z,97231.25
2022-07-27T11:57:04.948Z,97357.88
2022-07-27T11:59:34.956Z,97312.09
2022-07-27T12:02:05.449Z,97341.34
2022-07-27T12:04:35.301Z,97293.50
2022-07-27T12:07:10.873Z,97324.25
2022-07-27T12:09:43.530Z,97354.72
2022-07-27T12:12:14.479Z,97225.34
2022-07-27T12:14:46.129Z,97343.03
2022-07-27T12:17:19.148Z,97345.84
2022-07-27T12:19:59.288Z,97333.16
2022-07-27T12:22:38.819Z,97293.78
2022-07-27T12:25:16.990Z,97357.72
2022-07-27T12:27:55.951Z,97349.53
2022-07-27T12:30:32.501Z,97311.53
2022-07-27T12:33:01.818Z,97330.34
2022-07-27T12:35:36.725Z,97352.94
2022-07-27T12:38:08.170Z,97316.63
2022-07-27T12:40:45.647Z,97355.63
2022-07-27T12:43:18.229Z,97350.66
2022-07-27T12:45:47.183Z,97346.84
2022-07-27T12:48:17.640Z,97307.19
2022-07-27T12:50:47.854Z,97344.88
2022-07-27T12:53:17.882Z,97345.59
2022-07-27T12:55:47.513Z,97373.28
2022-07-27T12:58:17.330Z,97241.97
2022-07-27T13:00:45.754Z,97342.22
2022-07-27T13:03:14.074Z,97298.47
2022-07-27T13:05:42.740Z,97346.06
2022-07-27T13:08:12.111Z,97253.56
2022-07-27T13:10:45.747Z,97345.31
2022-07-27T13:13:15.411Z,97231.38
2022-07-27T13:15:43.652Z,97335.72
2022-07-27T13:18:12.203Z,97344.03
2022-07-27T13:20:42.562Z,97340.25
2022-07-27T13:23:10.848Z,97317.38
2022-07-27T13:25:43.205Z,97331.34
2022-07-27T13:28:12.066Z,97303.81
2022-07-27T13:30:42.116Z,97235.47
2022-07-27T13:33:10.426Z,97274.47
2022-07-27T13:35:39.102Z,97307.75
2022-07-27T13:38:07.388Z,97310.75
2022-07-27T13:40:36.008Z,97340.50
2022-07-27T13:43:09.162Z,97270.22
2022-07-27T13:45:43.049Z,97299.16
2022-07-27T13:48:13.323Z,97335.88
2022-07-27T13:50:41.804Z,97334.59
2022-07-27T13:53:15.141Z,97337.25
2022-07-27T13:55:44.596Z,97323.88
2022-07-27T13:58:13.091Z,97334.56
2022-07-27T14:00:43.195Z,97328.09
2022-07-27T14:03:11.853Z,97314.97
2022-07-27T14:05:43.079Z,97323.75
2022-07-27T14:08:17.976Z,97327.00
2022-07-27T14:10:46.264Z,97175.03
2022-07-27T14:13:16.736Z,97285.44
2022-07-27T14:15:52.901Z,97214.66
2022-07-27T14:18:24.710Z,97286.13
2022-07-27T14:20:52.988Z,97300.53
2022-07-27T14:23:21.770Z,97329.69
2022-07-27T14:25:50.273Z,97327.13
2022-07-27T14:28:18.920Z,97328.31
2022-07-27T14:30:49.522Z,97330.06
2022-07-27T14:33:18.275Z,97314.53
2022-07-27T14:35:46.724Z,97340.03
2022-07-27T14:38:27.153Z,97340.28
2022-07-27T14:41:01.965Z,97330.31
2022-07-27T14:43:30.940Z,97296.41
2022-07-27T14:46:01.067Z,97305.06
2022-07-27T14:49:03.445Z,97337.44
2022-07-27T14:51:18.469Z,97351.91
2022-07-27T14:53:46.831Z,97332.72
2022-07-27T14:56:15.322Z,97354.59
2022-07-27T14:58:44.214Z,97341.88
2022-07-27T15:01:16.991Z,97309.97
2022-07-27T15:03:46.399Z,97231.03
2022-07-27T15:06:14.718Z,97353.19
2022-07-27T15:08:43.173Z,97342.59
2022-07-27T15:11:11.493Z,97349.75
2022-07-27T15:13:39.742Z,97356.69
2022-07-27T15:16:08.270Z,97347.22
2022-07-27T15:18:39.183Z,97354.47
2022-07-27T15:21:13.475Z,97320.81
2022-07-27T15:23:43.346Z,97349.59
2022-07-27T15:26:12.951Z,97353.88
2022-07-27T15:28:41.277Z,97357.44
2022-07-27T15:31:09.872Z,97381.31
2022-07-27T15:33:42.642Z,97364.28
2022-07-27T15:36:12.928Z,97359.19
2022-07-27T15:39:00.377Z,97356.75
2022-07-27T15:41:28.984Z,97229.44
2022-07-27T15:43:59.116Z,97364.44
2022-07-27T15:46:28.063Z,97343.50
2022-07-27T15:48:58.020Z,97261.91
2022-07-27T15:51:26.396Z,97378.38
2022-07-27T15:53:54.793Z,97381.84
2022-07-27T15:56:23.058Z,97387.72
2022-07-27T15:58:51.566Z,97235.44
2022-07-27T16:01:21.283Z,97382.94
2022-07-27T16:03:50.035Z,97349.53
2022-07-27T16:06:20.157Z,97335.13
2022-07-27T16:08:48.711Z,97378.63
2022-07-27T16:11:17.071Z,97309.84
2022-07-27T16:13:45.437Z,97384.97
2022-07-27T16:16:26.149Z,97342.03
2022-07-27T16:18:55.635Z,97336.84
2022-07-27T16:21:26.413Z,97388.63
2022-07-27T16:23:56.571Z,97385.13
2022-07-27T16:26:25.974Z,97367.13
2022-07-27T16:28:57.096Z,97388.78
2022-07-27T16:31:25.473Z,97378.94
2022-07-27T16:33:55.246Z,97350.22
2022-07-27T16:36:25.302Z,97379.91
2022-07-27T16:38:53.951Z,97386.25
2022-07-27T16:41:23.845Z,97377.94
2022-07-27T16:43:52.226Z,97355.06
2022-07-27T16:46:20.487Z,97337.91
2022-07-27T16:48:49.260Z,97382.53
2022-07-27T16:51:18.019Z,97383.38
2022-07-27T16:53:49.262Z,97382.84
2022-07-27T16:56:18.382Z,97385.13
2022-07-27T16:58:46.562Z,97275.69
2022-07-27T17:01:26.460Z,97343.44
2022-07-27T17:03:56.582Z,97279.31
2022-07-27T17:06:26.189Z,97384.97
2022-07-27T17:08:56.528Z,97342.16
2022-07-27T17:11:25.062Z,97386.41
2022-07-27T17:13:59.355Z,97390.09
2022-07-27T17:16:29.007Z,97387.94
2022-07-27T17:18:57.633Z,97397.34
2022-07-27T17:21:26.266Z,97394.56
2022-07-27T17:23:56.174Z,97398.28
2022-07-27T17:26:25.172Z,97401.50
2022-07-27T17:28:54.778Z,97401.31
2022-07-27T17:31:23.427Z,97381.00
2022-07-27T17:33:52.692Z,97403.88
2022-07-27T17:36:21.193Z,97343.75
2022-07-27T17:38:50.922Z,97342.59
2022-07-27T17:41:25.060Z,97416.19
2022-07-27T17:43:54.759Z,97410.09
2022-07-27T17:46:24.824Z,97409.06
2022-07-27T17:48:54.599Z,97390.38
2022-07-27T17:51:25.495Z,97349.81
2022-07-27T17:53:53.870Z,97418.31
2022-07-27T17:56:23.688Z,97411.63
2022-07-27T17:58:52.444Z,97310.91
2022-07-27T18:01:47.487Z,97399.47
2022-07-27T18:04:09.904Z,97286.59
2022-07-27T18:06:39.366Z,97413.81
2022-07-27T18:09:08.887Z,97414.25
2022-07-27T18:11:38.851Z,97419.97
2022-07-27T18:14:07.189Z,97414.34
2022-07-27T18:16:40.466Z,97406.38
2022-07-27T18:19:09.314Z,97392.28
2022-07-27T18:21:37.979Z,97424.56
2022-07-27T18:24:06.456Z,97422.50
2022-07-27T18:26:36.115Z,97422.19
2022-07-27T18:29:05.905Z,97399.03
2022-07-27T18:31:35.037Z,97400.22
2022-07-27T18:34:05.112Z,97414.88
2022-07-27T18:36:39.680Z,97417.13
2022-07-27T18:39:08.141Z,97121.28
2022-07-27T18:41:38.173Z,97339.59
2022-07-27T18:44:11.198Z,97399.53
2022-07-27T18:46:40.161Z,97422.97
2022-07-27T18:49:10.834Z,97434.25
2022-07-27T18:51:42.741Z,97427.78
2022-07-27T18:54:11.297Z,97411.59
2022-07-27T18:56:43.271Z,97407.22
2022-07-27T18:59:13.154Z,97437.75
2022-07-27T19:01:42.124Z,97443.50
2022-07-27T19:04:11.503Z,97412.13
2022-07-27T19:06:44.656Z,97422.22
2022-07-27T19:09:16.169Z,97443.63
2022-07-27T19:11:45.068Z,97445.53
2022-07-27T19:14:15.700Z,97410.41
2022-07-27T19:16:44.459Z,97353.78
2022-07-27T19:19:17.890Z,97394.53
2022-07-27T19:21:50.299Z,97446.41
2022-07-27T19:24:21.488Z,97443.31
2022-07-27T19:26:50.426Z,97449.91
2022-07-27T19:29:23.643Z,97454.13
2022-07-27T19:31:52.652Z,97452.13
2022-07-27T19:34:21.384Z,97449.66
2022-07-27T19:36:50.304Z,97421.53
2022-07-27T19:39:18.501Z,97428.16
2022-07-27T19:41:46.857Z,97460.53
2022-07-27T19:44:19.129Z,97459.31
2022-07-27T19:46:51.990Z,97446.53
2022-07-27T19:49:20.551Z,97455.38
2022-07-27T19:51:48.775Z,97456.03
2022-07-27T19:54:16.974Z,97463.88
2022-07-27T19:56:45.303Z,97467.84
2022-07-27T19:59:14.316Z,97461.03
2022-07-27T20:01:43.268Z,97414.81
2022-07-27T20:04:13.207Z,97425.28
2022-07-27T20:06:41.553Z,97418.47
2022-07-27T20:09:10.011Z,97464.41
2022-07-27T20:11:38.687Z,97443.53
2022-07-27T20:14:06.972Z,97471.25
2022-07-27T20:16:38.349Z,97404.88
2022-07-27T20:19:06.764Z,97469.50
2022-07-27T20:21:37.381Z,97423.44
2022-07-27T20:24:06.140Z,97438.88
2022-07-27T20:26:34.965Z,97427.59
2022-07-27T20:29:03.268Z,97466.41
2022-07-27T20:31:31.572Z,97465.44
2022-07-27T20:33:59.921Z,97467.69
2022-07-27T20:36:28.204Z,97461.09
2022-07-27T20:38:59.296Z,97469.22
2022-07-27T20:41:27.715Z,97482.28
2022-07-27T20:43:55.971Z,97471.97
2022-07-27T20:46:24.310Z,97361.00
2022-07-27T20:48:53.107Z,97473.38
2022-07-27T20:51:21.552Z,97472.31
2022-07-27T20:53:50.734Z,97471.31
2022-07-27T20:56:20.654Z,97469.50
2022-07-27T20:58:49.753Z,97434.34
2022-07-27T21:01:18.007Z,97377.88
2022-07-27T21:03:46.581Z,97431.47
2022-07-27T21:06:14.921Z,97272.19
2022-07-27T21:08:46.704Z,97488.56
2022-07-27T21:11:15.286Z,97488.41
2022-07-27T21:13:45.020Z,97468.69
2022-07-27T21:16:13.491Z,97397.50
2022-07-27T21:18:42.134Z,97488.91
2022-07-27T21:21:10.374Z,97487.50
2022-07-27T21:23:56.890Z,97491.97
2022-07-27T21:26:25.161Z,97349.38
2022-07-27T21:28:54.849Z,97491.72
2022-07-27T21:31:23.069Z,97489.19
2022-07-27T21:33:51.726Z,97489.38
2022-07-27T21:36:20.523Z,97495.34
2022-07-27T21:38:50.084Z,97411.38
2022-07-27T21:41:18.453Z,97470.97
2022-07-27T21:43:46.726Z,97497.69
2022-07-27T21:46:16.787Z,97496.66
2022-07-27T21:48:45.234Z,97503.34
2022-07-27T21:51:14.873Z,97430.13
2022-07-27T21:53:43.722Z,97465.47
2022-07-27T21:56:13.047Z,97501.28
2022-07-27T21:58:41.959Z,97359.84
2022-07-27T22:01:10.348Z,97502.44
2022-07-27T22:03:40.192Z,97402.50
2022-07-27T22:06:10.163Z,97462.66
2022-07-27T22:08:38.952Z,97520.63
2022-07-27T22:11:07.388Z,97520.72
2022-07-27T22:13:36.262Z,97515.16
2022-07-27T22:16:04.782Z,97529.19
2022-07-27T22:18:33.049Z,97530.34
2022-07-27T22:21:03.248Z,97500.78
2022-07-27T22:23:31.462Z,97527.88
2022-07-27T22:26:00.197Z,97538.78
2022-07-27T22:28:28.471Z,97527.59
2022-07-27T22:31:17.510Z,97530.34
2022-07-27T22:33:45.301Z,97534.50
2022-07-27T22:36:15.564Z,97177.88
2022-07-27T22:38:45.211Z,97492.44
2022-07-27T22:41:14.281Z,97470.41
2022-07-27T22:43:42.581Z,97529.59
2022-07-27T22:46:11.353Z,97429.50
2022-07-27T22:48:39.960Z,97353.66
2022-07-27T22:51:08.403Z,97528.16
2022-07-27T22:53:38.806Z,97463.97
2022-07-27T22:56:07.607Z,97530.63
2022-07-27T22:58:36.070Z,97529.03
2022-07-27T23:01:04.344Z,97484.06
2022-07-27T23:03:32.729Z,97505.22
2022-07-27T23:06:00.941Z,97546.66
2022-07-27T23:08:29.572Z,97553.09
2022-07-27T23:10:59.398Z,97547.78
2022-07-27T23:13:33.786Z,97400.78
2022-07-27T23:16:02.493Z,97453.38
2022-07-27T23:18:30.777Z,97530.53
2022-07-27T23:20:59.007Z,97552.25
2022-07-27T23:23:27.785Z,97562.78
2022-07-27T23:25:56.042Z,97564.00
2022-07-27T23:28:26.208Z,97549.31
2022-07-27T23:30:54.512Z,97563.66
2022-07-27T23:33:22.718Z,97555.97
2022-07-27T23:35:50.999Z,97562.78
2022-07-27T23:38:19.302Z,97563.34
2022-07-27T23:40:47.746Z,97566.59
2022-07-27T23:43:15.983Z,97567.53
2022-07-27T23:45:45.663Z,97569.41
2022-07-27T23:48:13.843Z,97574.56
2022-07-27T23:50:42.126Z,97561.28
2022-07-27T23:53:10.764Z,97567.63
2022-07-27T23:55:39.239Z,97567.97
2022-07-27T23:58:07.522Z,97569.69
